createdAt,value
2019-04-21T00:01:26.491Z,10.83
2019-04-21T00:04:07.421Z,11.20
2019-04-21T00:06:48.053Z,11.00
2019-04-21T00:09:27.477Z,11.47
2019-04-21T00:11:49.119Z,11.83
2019-04-21T00:14:15.134Z,10.90
2019-04-21T00:16:44.330Z,11.57
2019-04-21T00:19:23.035Z,11.67
2019-04-21T00:21:57.759Z,11.47
2019-04-21T00:24:33.722Z,11.93
2019-04-21T00:27:11.155Z,11.67
2019-04-21T00:29:45.664Z,11.73
2019-04-21T00:32:10.082Z,12.40
2019-04-21T00:34:28.177Z,12.83
2019-04-21T00:37:09.443Z,12.23
2019-04-21T00:39:56.985Z,12.70
2019-04-21T00:42:19.937Z,12.97
2019-04-21T00:44:44.372Z,12.93
2019-04-21T00:47:26.677Z,12.30
2019-04-21T00:50:02.016Z,13.20
2019-04-21T00:53:05.759Z,12.80
2019-04-21T00:55:35.530Z,13.50
2019-04-21T00:58:03.721Z,13.27
2019-04-21T01:00:32.552Z,13.33
2019-04-21T01:03:00.920Z,13.83
2019-04-21T01:05:51.835Z,14.23
2019-04-21T01:08:04.944Z,13.47
2019-04-21T01:10:28.936Z,13.97
2019-04-21T01:13:18.766Z,13.60
2019-04-21T01:15:51.687Z,14.50
2019-04-21T01:18:16.625Z,14.03
2019-04-21T01:20:25.393Z,13.73
2019-04-21T01:22:55.852Z,13.70
2019-04-21T01:25:33.038Z,13.83
2019-04-21T01:28:15.944Z,13.93
2019-04-21T01:30:48.239Z,13.13
2019-04-21T01:33:21.906Z,13.97
2019-04-21T01:35:48.010Z,14.13
2019-04-21T01:38:31.720Z,14.23
2019-04-21T01:40:52.954Z,13.93
2019-04-21T01:43:25.003Z,13.80
2019-04-21T01:45:56.503Z,13.97
2019-04-21T01:48:24.373Z,13.83
2019-04-21T01:50:55.591Z,13.57
2019-04-21T01:53:43.536Z,13.73
2019-04-21T01:56:29.257Z,14.80
2019-04-21T01:58:48.160Z,13.57
2019-04-21T02:01:29.724Z,14.27
2019-04-21T02:03:59.989Z,14.57
2019-04-21T02:06:33.186Z,14.97
2019-04-21T02:09:05.151Z,13.83
2019-04-21T02:11:40.745Z,14.53
2019-04-21T02:16:40.530Z,14.07
2019-04-21T02:19:04.408Z,14.93
2019-04-21T02:21:36.528Z,14.40
2019-04-21T02:24:35.163Z,13.90
2019-04-21T02:26:47.659Z,14.43
2019-04-21T02:29:24.678Z,14.87
2019-04-21T02:34:37.975Z,15.13
2019-04-21T02:39:35.503Z,14.90
2019-04-21T02:42:05.622Z,14.67
2019-04-21T02:44:37.532Z,15.20
2019-04-21T02:46:54.517Z,14.23
2019-04-21T02:50:01.937Z,14.73
2019-04-21T02:52:14.235Z,15.07
2019-04-21T02:57:15.678Z,14.27
2019-04-21T02:59:59.548Z,15.20
2019-04-21T03:03:09.360Z,15.10
2019-04-21T03:05:46.911Z,15.57
2019-04-21T03:08:15.000Z,14.40
2019-04-21T03:13:21.753Z,15.10
2019-04-21T03:16:01.202Z,15.23
2019-04-21T03:18:24.369Z,15.17
2019-04-21T03:20:51.140Z,15.40
2019-04-21T03:25:56.679Z,15.67
2019-04-21T03:28:30.536Z,16.03
2019-04-21T03:31:32.076Z,15.83
2019-04-21T03:34:15.619Z,15.13
2019-04-21T03:38:43.263Z,16.60
2019-04-21T03:41:05.129Z,15.47
2019-04-21T03:43:40.025Z,16.13
2019-04-21T03:46:11.794Z,16.00
2019-04-21T03:48:46.316Z,15.47
2019-04-21T03:53:39.921Z,15.43
2019-04-21T03:56:16.163Z,15.90
2019-04-21T03:58:54.286Z,17.57
2019-04-21T04:04:30.014Z,18.50
2019-04-21T04:07:04.051Z,18.57
2019-04-21T04:11:56.572Z,17.47
2019-04-21T04:14:39.943Z,17.97
2019-04-21T04:24:57.550Z,18.57
2019-04-21T04:27:21.977Z,18.13
2019-04-21T04:29:41.045Z,19.13
2019-04-21T04:32:18.764Z,18.67
2019-04-21T04:34:49.858Z,17.83
2019-04-21T04:37:23.152Z,18.17
2019-04-21T04:40:01.098Z,17.35
2019-04-21T04:45:17.556Z,17.10
2019-04-21T04:47:32.536Z,17.77
2019-04-21T04:50:24.315Z,18.53
2019-04-21T04:55:16.578Z,19.03
2019-04-21T04:57:49.660Z,17.90
2019-04-21T05:05:14.123Z,18.10
2019-04-21T05:07:52.231Z,18.13
2019-04-21T05:10:04.296Z,18.53
2019-04-21T05:12:35.904Z,18.20
2019-04-21T05:22:47.634Z,18.53
2019-04-21T05:25:03.725Z,18.57
2019-04-21T05:27:47.254Z,18.67
2019-04-21T05:30:22.073Z,18.60
2019-04-21T05:33:09.212Z,19.90
2019-04-21T05:36:11.023Z,18.80
2019-04-21T05:39:07.531Z,19.30
2019-04-21T05:41:26.577Z,18.57
2019-04-21T05:44:03.833Z,18.27
2019-04-21T05:46:44.628Z,19.00
2019-04-21T05:49:14.067Z,17.73
2019-04-21T05:51:55.709Z,19.47
2019-04-21T05:54:42.328Z,18.27
2019-04-21T05:57:05.931Z,18.37
2019-04-21T05:59:41.733Z,18.03
2019-04-21T06:02:20.920Z,18.17
2019-04-21T06:05:05.820Z,18.07
2019-04-21T06:07:21.624Z,18.13
2019-04-21T06:09:51.357Z,17.80
2019-04-21T06:12:13.672Z,17.67
2019-04-21T06:14:52.237Z,16.90
2019-04-21T06:17:25.029Z,16.67
2019-04-21T06:22:22.423Z,16.00
2019-04-21T06:25:21.171Z,15.43
2019-04-21T06:27:34.070Z,16.43
2019-04-21T06:30:01.529Z,16.13
2019-04-21T06:35:12.437Z,17.20
2019-04-21T06:42:51.468Z,15.57
2019-04-21T06:45:25.772Z,15.10
2019-04-21T06:47:51.248Z,14.47
2019-04-21T06:50:22.771Z,16.33
2019-04-21T06:55:27.900Z,15.43
2019-04-21T06:57:55.930Z,15.40
2019-04-21T07:00:27.363Z,16.20
2019-04-21T07:03:02.942Z,16.60
2019-04-21T07:05:33.560Z,16.40
2019-04-21T07:08:16.765Z,16.13
2019-04-21T07:10:35.457Z,15.97
2019-04-21T07:12:57.584Z,15.77
2019-04-21T07:15:37.019Z,16.20
2019-04-21T07:18:04.597Z,14.90
2019-04-21T07:20:38.385Z,15.67
2019-04-21T07:23:09.538Z,14.93
2019-04-21T07:25:39.147Z,14.97
2019-04-21T07:28:15.464Z,15.00
2019-04-21T07:30:43.876Z,15.67
2019-04-21T07:33:34.861Z,15.13
2019-04-21T07:35:43.169Z,15.20
2019-04-21T07:38:14.190Z,15.13
2019-04-21T07:40:41.717Z,14.63
2019-04-21T07:43:10.759Z,14.63
2019-04-21T07:45:45.942Z,15.07
2019-04-21T07:48:29.717Z,15.17
2019-04-21T07:51:12.514Z,14.40
2019-04-21T07:53:55.349Z,14.30
2019-04-21T07:56:07.353Z,14.23
2019-04-21T07:58:58.214Z,13.93
2019-04-21T08:01:24.380Z,13.67
2019-04-21T08:03:55.030Z,14.17
2019-04-21T08:06:27.073Z,14.53
2019-04-21T08:08:54.468Z,13.23
2019-04-21T08:11:25.370Z,13.73
2019-04-21T08:14:00.667Z,13.33
2019-04-21T08:16:30.522Z,14.03
2019-04-21T08:19:09.698Z,13.30
2019-04-21T08:21:33.894Z,14.80
2019-04-21T08:24:06.360Z,14.43
2019-04-21T08:29:19.126Z,13.80
2019-04-21T08:31:50.319Z,14.38
2019-04-21T08:34:16.968Z,14.80
2019-04-21T08:36:41.833Z,13.63
2019-04-21T08:39:14.072Z,14.30
2019-04-21T08:41:46.541Z,13.93
2019-04-21T08:44:20.523Z,14.13
2019-04-21T08:46:52.613Z,13.77
2019-04-21T08:49:22.155Z,14.43
2019-04-21T08:52:03.345Z,14.13
2019-04-21T08:57:25.719Z,14.50
2019-04-21T09:00:08.340Z,14.53
2019-04-21T09:02:46.518Z,37.60
2019-04-21T09:05:17.756Z,20.80
2019-04-21T09:07:53.792Z,14.50
2019-04-21T09:10:23.527Z,17.80
2019-04-21T09:12:51.804Z,16.20
2019-04-21T09:15:24.971Z,17.83
2019-04-21T09:17:49.043Z,16.97
2019-04-21T09:20:36.526Z,15.60
2019-04-21T09:23:00.746Z,14.50
2019-04-21T09:25:38.347Z,15.80
2019-04-21T09:28:01.339Z,14.67
2019-04-21T09:30:15.677Z,13.87
2019-04-21T09:32:50.618Z,14.33
2019-04-21T09:35:18.362Z,19.23
2019-04-21T09:37:56.151Z,15.27
2019-04-21T09:40:27.455Z,15.10
2019-04-21T09:42:57.500Z,23.37
2019-04-21T09:45:22.925Z,17.20
2019-04-21T09:48:00.839Z,14.47
2019-04-21T09:50:26.608Z,14.17
2019-04-21T09:53:03.959Z,12.87
2019-04-21T09:55:36.554Z,18.00
2019-04-21T09:58:09.946Z,15.43
2019-04-21T10:00:43.392Z,25.90
2019-04-21T10:03:08.206Z,13.93
2019-04-21T10:05:36.019Z,13.77
2019-04-21T10:08:05.923Z,16.90
2019-04-21T10:10:36.457Z,13.90
2019-04-21T10:13:07.073Z,13.13
2019-04-21T10:15:37.689Z,12.20
2019-04-21T10:18:12.965Z,12.53
2019-04-21T10:20:42.878Z,11.57
2019-04-21T10:23:13.478Z,12.13
2019-04-21T10:25:43.196Z,14.03
2019-04-21T10:28:12.915Z,12.00
2019-04-21T10:30:42.912Z,10.97
2019-04-21T10:33:12.579Z,11.03
2019-04-21T10:35:43.269Z,10.47
2019-04-21T10:38:22.964Z,10.67
2019-04-21T10:40:43.936Z,11.33
2019-04-21T10:43:14.188Z,11.87
2019-04-21T10:45:44.762Z,12.57
2019-04-21T10:48:14.683Z,12.80
2019-04-21T10:50:45.289Z,11.13
2019-04-21T10:53:21.245Z,11.30
2019-04-21T10:56:03.140Z,11.53
2019-04-21T10:58:34.173Z,11.80
2019-04-21T11:01:13.871Z,11.90
2019-04-21T11:03:56.258Z,13.73
2019-04-21T11:06:26.479Z,12.90
2019-04-21T11:08:59.107Z,10.40
2019-04-21T11:11:27.983Z,10.30
2019-04-21T11:13:58.861Z,9.70
2019-04-21T11:16:29.006Z,10.30
2019-04-21T11:19:00.008Z,10.17
2019-04-21T11:21:29.572Z,9.27
2019-04-21T11:23:59.156Z,10.40
2019-04-21T11:26:29.769Z,10.10
2019-04-21T11:28:59.409Z,10.30
2019-04-21T11:31:29.291Z,10.70
2019-04-21T11:33:59.085Z,10.70
2019-04-21T11:36:29.201Z,11.27
2019-04-21T11:39:16.405Z,11.23
2019-04-21T11:41:34.014Z,11.50
2019-04-21T11:44:05.026Z,11.00
2019-04-21T11:46:36.181Z,11.33
2019-04-21T11:49:06.373Z,9.80
2019-04-21T11:51:37.424Z,10.47
2019-04-21T11:54:08.664Z,10.57
2019-04-21T11:56:38.899Z,12.90
2019-04-21T11:59:09.862Z,10.73
2019-04-21T12:01:39.809Z,10.83
2019-04-21T12:04:09.819Z,9.90
2019-04-21T12:06:44.521Z,10.20
2019-04-21T12:09:11.833Z,10.50
2019-04-21T12:11:43.277Z,10.53
2019-04-21T12:14:14.221Z,10.60
2019-04-21T12:16:43.895Z,10.37
2019-04-21T12:19:14.546Z,10.17
2019-04-21T12:21:53.307Z,9.90
2019-04-21T12:24:15.348Z,10.00
2019-04-21T12:26:46.246Z,10.27
2019-04-21T12:29:16.664Z,10.50
2019-04-21T12:32:03.880Z,11.77
2019-04-21T12:34:34.301Z,11.00
2019-04-21T12:37:04.611Z,10.97
2019-04-21T12:39:34.756Z,9.67
2019-04-21T12:42:04.739Z,9.90
2019-04-21T12:44:35.200Z,10.77
2019-04-21T12:47:05.741Z,9.17
2019-04-21T12:49:36.243Z,9.13
2019-04-21T12:52:06.026Z,8.33
2019-04-21T12:54:35.719Z,8.17
2019-04-21T12:57:05.437Z,8.57
2019-04-21T12:59:36.307Z,7.93
2019-04-21T13:02:07.408Z,7.70
2019-04-21T13:04:37.851Z,7.87
2019-04-21T13:07:07.812Z,7.83
2019-04-21T13:09:37.657Z,7.47
2019-04-21T13:12:07.155Z,7.47
2019-04-21T13:14:37.799Z,8.00
2019-04-21T13:17:07.651Z,8.70
2019-04-21T13:19:37.427Z,8.03
2019-04-21T13:22:07.853Z,8.50
2019-04-21T13:24:37.948Z,9.13
2019-04-21T13:27:09.411Z,8.77
2019-04-21T13:29:38.891Z,8.33
2019-04-21T13:32:10.608Z,8.40
2019-04-21T13:34:42.106Z,9.20
2019-04-21T13:37:12.002Z,8.70
2019-04-21T13:40:16.454Z,8.60
2019-04-21T13:42:30.164Z,9.80
2019-04-21T13:44:56.245Z,8.00
2019-04-21T13:47:42.915Z,7.95
2019-04-21T13:50:13.364Z,7.73
2019-04-21T13:52:44.799Z,8.00
2019-04-21T13:55:15.856Z,7.67
2019-04-21T13:57:46.448Z,8.10
2019-04-21T14:00:17.270Z,7.40
2019-04-21T14:02:48.701Z,7.87
2019-04-21T14:05:20.216Z,8.05
2019-04-21T14:07:50.301Z,7.60
2019-04-21T14:10:21.869Z,7.83
2019-04-21T14:12:51.758Z,8.13
2019-04-21T14:15:22.137Z,7.12
2019-04-21T14:17:53.078Z,7.53
2019-04-21T14:20:22.844Z,6.90
2019-04-21T14:22:53.985Z,6.90
2019-04-21T14:25:25.783Z,6.90
2019-04-21T14:27:56.501Z,7.17
2019-04-21T14:30:28.412Z,8.50
2019-04-21T14:33:00.271Z,6.77
2019-04-21T14:35:30.006Z,7.17
2019-04-21T14:38:00.551Z,7.07
2019-04-21T14:40:33.286Z,6.23
2019-04-21T14:43:02.740Z,6.40
2019-04-21T14:45:40.888Z,6.47
2019-04-21T14:48:29.590Z,6.90
2019-04-21T14:51:20.894Z,6.43
2019-04-21T14:54:10.076Z,6.30
2019-04-21T14:56:39.828Z,6.10
2019-04-21T14:59:09.219Z,6.37
2019-04-21T15:01:39.868Z,6.80
2019-04-21T15:04:09.938Z,6.37
2019-04-21T15:06:39.404Z,6.60
2019-04-21T15:09:11.118Z,6.47
2019-04-21T15:11:42.176Z,5.93
2019-04-21T15:14:11.815Z,6.03
2019-04-21T15:16:42.566Z,6.07
2019-04-21T15:19:12.789Z,5.73
2019-04-21T15:21:44.614Z,6.17
2019-04-21T15:24:14.431Z,7.97
2019-04-21T15:26:44.388Z,6.93
2019-04-21T15:29:15.092Z,6.97
2019-04-21T15:31:46.503Z,6.60
2019-04-21T15:34:17.036Z,6.20
2019-04-21T15:36:48.247Z,5.70
2019-04-21T15:39:19.375Z,6.33
2019-04-21T15:41:50.492Z,6.30
2019-04-21T15:44:20.858Z,6.20
2019-04-21T15:46:50.450Z,5.87
2019-04-21T15:49:20.816Z,6.83
2019-04-21T15:51:51.840Z,7.20
2019-04-21T15:54:22.635Z,7.83
2019-04-21T15:57:09.029Z,8.37
2019-04-21T15:59:53.310Z,8.33
2019-04-21T16:02:40.241Z,7.40
2019-04-21T16:05:11.074Z,6.43
2019-04-21T16:07:40.803Z,6.17
2019-04-21T16:10:14.471Z,6.60
2019-04-21T16:12:43.660Z,6.17
2019-04-21T16:15:16.541Z,6.50
2019-04-21T16:17:47.591Z,6.23
2019-04-21T16:20:17.802Z,6.57
2019-04-21T16:22:48.682Z,6.13
2019-04-21T16:25:18.902Z,5.60
2019-04-21T16:27:48.568Z,5.90
2019-04-21T16:30:19.652Z,5.73
2019-04-21T16:32:50.245Z,5.90
2019-04-21T16:35:21.738Z,6.10
2019-04-21T16:37:54.251Z,5.63
2019-04-21T16:40:23.435Z,6.10
2019-04-21T16:42:54.216Z,5.97
2019-04-21T16:45:25.240Z,6.37
2019-04-21T16:47:55.955Z,5.73
2019-04-21T16:50:27.943Z,5.50
2019-04-21T16:53:06.110Z,5.93
2019-04-21T16:55:53.185Z,5.87
2019-04-21T16:58:48.450Z,5.90
2019-04-21T17:01:22.375Z,5.73
2019-04-21T17:03:52.702Z,7.63
2019-04-21T17:06:22.860Z,5.90
2019-04-21T17:08:52.747Z,6.27
2019-04-21T17:11:27.353Z,6.17
2019-04-21T17:13:54.233Z,6.20
2019-04-21T17:19:06.589Z,7.13
2019-04-21T17:21:27.908Z,7.73
2019-04-21T17:23:58.874Z,8.00
2019-04-21T17:26:29.056Z,7.60
2019-04-21T17:28:58.812Z,7.27
2019-04-21T17:31:30.946Z,7.90
2019-04-21T17:34:09.560Z,8.47
2019-04-21T17:36:32.904Z,8.63
2019-04-21T17:39:02.766Z,8.90
2019-04-21T17:41:40.912Z,8.10
2019-04-21T17:44:04.329Z,7.67
2019-04-21T17:46:45.565Z,8.00
2019-04-21T17:49:12.777Z,8.53
2019-04-21T17:52:00.881Z,8.77
2019-04-21T17:54:41.277Z,8.57
2019-04-21T17:57:26.510Z,8.83
2019-04-21T18:02:34.014Z,8.67
2019-04-21T18:05:07.359Z,8.40
2019-04-21T18:07:31.258Z,8.37
2019-04-21T18:10:14.241Z,9.03
2019-04-21T18:12:33.416Z,8.47
2019-04-21T18:14:56.273Z,8.40
2019-04-21T18:17:20.602Z,7.97
2019-04-21T18:19:51.799Z,7.73
2019-04-21T18:22:45.503Z,7.87
2019-04-21T18:25:28.067Z,7.55
2019-04-21T18:27:48.683Z,7.10
2019-04-21T18:30:46.618Z,7.60
2019-04-21T18:33:22.267Z,7.90
2019-04-21T18:36:07.051Z,8.87
2019-04-21T18:39:10.222Z,7.77
2019-04-21T18:41:32.135Z,8.50
2019-04-21T18:47:12.192Z,7.90
2019-04-21T18:49:35.365Z,7.97
2019-04-21T18:52:42.631Z,7.90
2019-04-21T18:55:09.483Z,7.23
2019-04-21T18:57:37.426Z,7.53
2019-04-21T18:59:59.520Z,8.20
2019-04-21T19:02:38.406Z,8.90
2019-04-21T19:05:09.105Z,8.03
2019-04-21T19:07:52.021Z,8.90
2019-04-21T19:13:21.551Z,9.90
2019-04-21T19:15:20.008Z,10.23
2019-04-21T19:18:27.762Z,10.60
2019-04-21T19:20:29.505Z,10.30
2019-04-21T19:22:58.666Z,11.40
2019-04-21T19:25:31.517Z,11.07
2019-04-21T19:28:04.158Z,11.47
2019-04-21T19:33:03.927Z,12.57
2019-04-21T19:35:19.444Z,12.23
2019-04-21T19:37:57.647Z,12.80
2019-04-21T19:40:38.899Z,14.33
2019-04-21T19:43:03.606Z,14.53
2019-04-21T19:45:36.754Z,14.30
2019-04-21T19:48:15.317Z,15.10
2019-04-21T19:50:47.067Z,14.80
2019-04-21T19:53:07.333Z,16.07
2019-04-21T19:55:29.972Z,16.55
2019-04-21T19:57:59.360Z,17.40
2019-04-21T20:00:28.790Z,15.87
2019-04-21T20:02:58.659Z,18.17
2019-04-21T20:05:36.065Z,17.52
2019-04-21T20:08:17.337Z,18.33
2019-04-21T20:10:48.355Z,18.13
2019-04-21T20:13:35.406Z,19.67
2019-04-21T20:15:57.213Z,19.20
2019-04-21T20:18:17.573Z,20.40
2019-04-21T20:20:37.320Z,20.37
2019-04-21T20:23:14.996Z,22.33
2019-04-21T20:25:45.716Z,25.40
2019-04-21T20:28:21.342Z,25.50
2019-04-21T20:31:03.736Z,28.70
2019-04-21T20:33:50.527Z,32.85
2019-04-21T20:36:06.236Z,33.73
2019-04-21T20:38:31.175Z,39.10
2019-04-21T20:40:59.155Z,43.30
2019-04-21T20:43:42.529Z,46.03
2019-04-21T20:46:07.954Z,49.00
2019-04-21T20:48:37.208Z,47.93
2019-04-21T20:51:14.586Z,49.03
2019-04-21T20:53:44.185Z,48.20
2019-04-21T20:56:11.480Z,49.93
2019-04-21T20:58:49.307Z,52.30
2019-04-21T21:01:30.834Z,55.87
2019-04-21T21:03:47.902Z,56.43
2019-04-21T21:06:21.861Z,57.37
2019-04-21T21:08:55.446Z,56.70
2019-04-21T21:11:26.132Z,55.73
2019-04-21T21:14:00.371Z,60.93
2019-04-21T21:16:29.127Z,58.07
2019-04-21T21:19:13.573Z,55.33
2019-04-21T21:21:30.104Z,53.00
2019-04-21T21:24:06.743Z,51.13
2019-04-21T21:26:31.384Z,49.10
2019-04-21T21:28:57.425Z,46.47
2019-04-21T21:31:37.343Z,44.60
2019-04-21T21:34:11.827Z,43.13
2019-04-21T21:36:43.200Z,42.20
2019-04-21T21:39:12.810Z,42.40
2019-04-21T21:41:31.807Z,42.10
2019-04-21T21:44:05.115Z,42.97
2019-04-21T21:46:44.179Z,41.63
2019-04-21T21:49:07.536Z,40.97
2019-04-21T21:51:42.981Z,40.90
2019-04-21T21:54:03.307Z,41.10
2019-04-21T21:56:34.437Z,39.40
2019-04-21T21:59:10.525Z,39.70
2019-04-21T22:01:38.912Z,37.70
2019-04-21T22:04:13.123Z,36.50
2019-04-21T22:06:47.240Z,35.40
2019-04-21T22:09:12.504Z,34.80
2019-04-21T22:11:42.310Z,33.90
2019-04-21T22:14:22.260Z,33.07
2019-04-21T22:16:59.427Z,32.87
2019-04-21T22:19:31.069Z,31.73
2019-04-21T22:22:08.102Z,32.47
2019-04-21T22:24:31.500Z,31.43
2019-04-21T22:26:49.385Z,33.33
2019-04-21T22:29:19.402Z,33.23
2019-04-21T22:31:54.057Z,32.77
2019-04-21T22:34:29.437Z,32.23
2019-04-21T22:37:01.726Z,33.73
2019-04-21T22:39:41.668Z,32.93
2019-04-21T22:42:05.022Z,32.80
2019-04-21T22:44:25.945Z,31.70
2019-04-21T22:47:07.276Z,33.17
2019-04-21T22:49:26.770Z,33.13
2019-04-21T22:52:00.765Z,33.63
2019-04-21T22:54:34.157Z,33.33
2019-04-21T22:57:07.310Z,35.60
2019-04-21T22:59:32.406Z,35.20
2019-04-21T23:02:06.358Z,33.70
2019-04-21T23:04:42.017Z,34.50
2019-04-21T23:07:10.042Z,33.77
2019-04-21T23:09:37.327Z,32.83
2019-04-21T23:12:08.063Z,33.63
2019-04-21T23:14:47.388Z,32.07
2019-04-21T23:17:29.219Z,35.23
2019-04-21T23:20:04.071Z,34.83
2019-04-21T23:22:32.569Z,36.13
2019-04-21T23:25:03.428Z,34.13
2019-04-21T23:27:34.399Z,34.90
2019-04-21T23:30:17.816Z,33.17
2019-04-21T23:32:33.886Z,31.40
2019-04-21T23:34:51.182Z,31.30
2019-04-21T23:37:25.289Z,32.47
2019-04-21T23:40:02.629Z,30.70
2019-04-21T23:42:31.767Z,31.73
2019-04-21T23:44:59.635Z,33.13
2019-04-21T23:47:41.876Z,32.08
2019-04-21T23:50:15.950Z,32.57
2019-04-21T23:52:32.118Z,32.27
2019-04-21T23:55:03.148Z,30.47
2019-04-21T23:57:39.355Z,28.77
